Search for airport 
image banner adimage banner ad
image banner ad

ESNM - Optand

Located in , Sweden

ICAO - ESNM, IATA -

Data provided by Airmate  

General information

Coordinates: N63°7'31" E14°48'30"
Elevation is 1236 feet MSL.
 
Rated:
View ratings: [VIEW]


View others Airports in Jämtlande län

Operational data

Open for public use
Current time UTC:
Current local time:
Weather at : ESNZ - Are Ostersund ( 17 km )
METAR: ESNZ 070050Z AUTO 21004KT 9999 SCT051/// BKN100/// 15/14 Q1022
View NOTAMs / SUP AIP / TFR affecting this airport [VIEW]
Communications frequencies: [VIEW]

Runways:

RWY identifierQFULength (ft)Width (ft)SurfaceLDA (ft)
152461131GRASS
332461131GRASS
18328159ASPH
36328159ASPH

Airport contact information

Address: Sweden

Satellite view of ESNM